createdAt,value
2018-02-02T00:00:05.797Z,6.50
2018-02-02T00:01:05.788Z,4.70
2018-02-02T00:02:05.782Z,8.70
2018-02-02T00:03:05.771Z,7.00
2018-02-02T00:04:05.762Z,5.20
2018-02-02T00:05:05.752Z,5.00
2018-02-02T00:06:05.745Z,5.50
2018-02-02T00:07:05.738Z,6.60
2018-02-02T00:08:05.731Z,5.90
2018-02-02T00:09:05.723Z,4.90
2018-02-02T00:10:05.708Z,5.90
2018-02-02T00:11:05.721Z,5.70
2018-02-02T00:12:05.696Z,5.70
2018-02-02T00:13:05.685Z,5.60
2018-02-02T00:14:05.680Z,4.70
2018-02-02T00:15:05.664Z,5.60
2018-02-02T00:16:05.664Z,4.50
2018-02-02T00:17:05.650Z,6.10
2018-02-02T00:18:05.643Z,6.40
2018-02-02T00:19:05.633Z,6.30
2018-02-02T00:20:05.626Z,5.10
2018-02-02T00:21:05.619Z,5.40
2018-02-02T00:22:05.607Z,4.40
2018-02-02T00:23:05.601Z,5.20
2018-02-02T00:24:05.589Z,4.70
2018-02-02T00:25:05.583Z,6.30
2018-02-02T00:26:05.573Z,5.00
2018-02-02T00:27:05.565Z,5.70
2018-02-02T00:28:05.556Z,4.70
2018-02-02T00:29:05.551Z,5.00
2018-02-02T00:30:05.536Z,5.70
2018-02-02T00:31:05.530Z,6.30
2018-02-02T00:32:05.524Z,4.40
2018-02-02T00:33:05.515Z,4.20
2018-02-02T00:34:05.508Z,5.20
2018-02-02T00:35:05.496Z,5.60
2018-02-02T00:36:05.488Z,4.60
2018-02-02T00:37:05.479Z,5.10
2018-02-02T00:38:05.469Z,5.00
2018-02-02T00:39:05.470Z,6.60
2018-02-02T00:40:05.455Z,5.80
2018-02-02T00:41:05.445Z,6.10
2018-02-02T00:42:05.436Z,5.40
2018-02-02T00:43:05.427Z,5.20
2018-02-02T00:44:05.429Z,6.40
2018-02-02T00:45:05.411Z,4.70
2018-02-02T00:46:05.402Z,6.60
2018-02-02T00:47:05.402Z,7.00
2018-02-02T00:48:05.387Z,5.40
2018-02-02T00:49:05.377Z,4.40
2018-02-02T00:50:05.368Z,5.40
2018-02-02T00:51:05.359Z,5.60
2018-02-02T00:52:05.350Z,4.60
2018-02-02T00:53:05.339Z,4.00
2018-02-02T00:54:05.338Z,6.40
2018-02-02T00:55:05.324Z,6.40
2018-02-02T00:56:05.318Z,5.10
2018-02-02T00:57:05.306Z,7.70
2018-02-02T00:58:05.300Z,4.90
2018-02-02T00:59:05.293Z,4.70
2018-02-02T01:00:05.283Z,5.80
2018-02-02T01:01:05.272Z,6.00
2018-02-02T01:02:05.265Z,7.00
2018-02-02T01:03:05.258Z,5.80
2018-02-02T01:04:05.248Z,5.00
2018-02-02T01:05:05.239Z,7.00
2018-02-02T01:06:05.236Z,6.70
2018-02-02T01:07:05.222Z,5.90
2018-02-02T01:08:05.212Z,5.60
2018-02-02T01:09:05.255Z,6.20
2018-02-02T01:10:05.196Z,5.40
2018-02-02T01:11:05.244Z,6.40
2018-02-02T01:12:05.180Z,5.10
2018-02-02T01:13:05.171Z,6.10
2018-02-02T01:14:05.161Z,6.80
2018-02-02T01:15:05.154Z,6.20
2018-02-02T01:16:05.143Z,6.90
2018-02-02T01:17:05.137Z,4.50
2018-02-02T01:18:05.128Z,7.10
2018-02-02T01:19:05.117Z,5.00
2018-02-02T01:20:05.110Z,4.80
2018-02-02T01:21:05.103Z,4.30
2018-02-02T01:22:05.092Z,6.70
2018-02-02T01:23:05.083Z,5.10
2018-02-02T01:24:05.073Z,5.50
2018-02-02T01:25:05.068Z,5.20
2018-02-02T01:26:05.061Z,4.80
2018-02-02T01:27:05.048Z,6.00
2018-02-02T01:28:05.041Z,6.20
2018-02-02T01:29:05.031Z,7.10
2018-02-02T01:30:05.024Z,7.00
2018-02-02T01:31:05.013Z,6.20
2018-02-02T01:32:05.002Z,6.10
2018-02-02T01:33:04.996Z,6.00
2018-02-02T01:34:04.989Z,5.00
2018-02-02T01:35:04.979Z,5.40
2018-02-02T01:36:04.972Z,6.00
2018-02-02T01:37:04.961Z,7.00
2018-02-02T01:38:04.952Z,6.60
2018-02-02T01:39:04.943Z,4.60
2018-02-02T01:40:04.937Z,4.70
2018-02-02T01:41:04.927Z,5.30
2018-02-02T01:42:04.919Z,5.00
2018-02-02T01:43:04.909Z,6.50
2018-02-02T01:44:04.902Z,5.30
2018-02-02T01:45:04.894Z,6.20
2018-02-02T01:46:04.882Z,6.60
2018-02-02T01:47:04.874Z,6.80
2018-02-02T01:48:04.872Z,5.70
2018-02-02T01:49:04.857Z,5.50
2018-02-02T01:50:04.848Z,6.40
2018-02-02T01:51:04.840Z,4.80
2018-02-02T01:52:04.832Z,6.40
2018-02-02T01:53:04.820Z,5.60
2018-02-02T01:54:04.817Z,7.40
2018-02-02T01:55:04.804Z,5.80
2018-02-02T01:56:04.798Z,5.90
2018-02-02T01:57:04.783Z,5.30
2018-02-02T01:58:04.777Z,5.10
2018-02-02T01:59:04.774Z,6.00
2018-02-02T02:00:04.760Z,6.80
2018-02-02T02:01:04.751Z,5.80
2018-02-02T02:02:04.744Z,6.20
2018-02-02T02:03:04.732Z,6.60
2018-02-02T02:04:04.724Z,8.30
2018-02-02T02:05:04.715Z,7.30
2018-02-02T02:06:04.709Z,5.70
2018-02-02T02:07:04.700Z,4.80
2018-02-02T02:08:04.689Z,6.80
2018-02-02T02:09:04.678Z,6.60
2018-02-02T02:10:04.668Z,5.10
2018-02-02T02:11:04.664Z,6.10
2018-02-02T02:12:04.655Z,5.40
2018-02-02T02:13:04.643Z,6.00
2018-02-02T02:14:04.639Z,5.90
2018-02-02T02:15:04.628Z,5.20
2018-02-02T02:16:04.619Z,5.70
2018-02-02T02:17:04.609Z,7.10
2018-02-02T02:18:04.599Z,5.90
2018-02-02T02:19:04.596Z,6.70
2018-02-02T02:20:04.583Z,6.20
2018-02-02T02:21:04.573Z,7.50
2018-02-02T02:22:04.566Z,6.40
2018-02-02T02:23:04.552Z,7.80
2018-02-02T02:24:04.547Z,5.60
2018-02-02T02:25:04.538Z,6.70
2018-02-02T02:26:04.529Z,7.30
2018-02-02T02:27:04.521Z,7.00
2018-02-02T02:28:04.513Z,9.20
2018-02-02T02:29:04.503Z,6.80
2018-02-02T02:30:04.494Z,6.70
2018-02-02T02:31:04.486Z,5.80
2018-02-02T02:32:04.477Z,6.40
2018-02-02T02:33:04.469Z,7.00
2018-02-02T02:34:04.458Z,6.70
2018-02-02T02:35:04.451Z,7.30
2018-02-02T02:36:04.443Z,5.90
2018-02-02T02:37:04.433Z,6.90
2018-02-02T02:38:04.423Z,6.50
2018-02-02T02:39:04.416Z,7.70
2018-02-02T02:40:04.408Z,7.40
2018-02-02T02:41:04.396Z,7.00
2018-02-02T02:42:04.388Z,7.10
2018-02-02T02:43:04.378Z,6.70
2018-02-02T02:44:04.371Z,7.40
2018-02-02T02:45:04.364Z,6.70
2018-02-02T02:46:04.353Z,6.60
2018-02-02T02:47:04.350Z,7.30
2018-02-02T02:48:04.335Z,6.60
2018-02-02T02:49:04.327Z,6.70
2018-02-02T02:50:04.318Z,7.40
2018-02-02T02:51:04.308Z,5.70
2018-02-02T02:52:04.303Z,6.40
2018-02-02T02:53:04.295Z,6.90
2018-02-02T02:54:04.283Z,5.80
2018-02-02T02:55:04.273Z,5.60
2018-02-02T02:56:04.265Z,7.30
2018-02-02T02:57:04.259Z,6.70
2018-02-02T02:58:04.245Z,6.30
2018-02-02T02:59:04.237Z,6.80
2018-02-02T03:00:04.229Z,6.20
2018-02-02T03:01:04.217Z,6.50
2018-02-02T03:02:04.214Z,6.00
2018-02-02T03:03:04.200Z,5.50
2018-02-02T03:04:04.195Z,6.50
2018-02-02T03:05:04.186Z,7.30
2018-02-02T03:06:04.176Z,6.10
2018-02-02T03:07:04.168Z,5.60
2018-02-02T03:08:04.160Z,5.20
2018-02-02T03:09:04.148Z,7.80
2018-02-02T03:10:04.140Z,7.30
2018-02-02T03:11:04.130Z,8.00
2018-02-02T03:12:04.121Z,7.90
2018-02-02T03:13:04.114Z,9.60
2018-02-02T03:14:04.110Z,9.50
2018-02-02T03:15:04.096Z,8.70
2018-02-02T03:16:04.085Z,7.60
2018-02-02T03:17:04.076Z,10.60
2018-02-02T03:18:04.070Z,9.10
2018-02-02T03:19:04.058Z,8.20
2018-02-02T03:20:04.050Z,10.00
2018-02-02T03:21:04.039Z,10.60
2018-02-02T03:22:04.032Z,11.40
2018-02-02T03:23:04.023Z,11.70
2018-02-02T03:24:04.014Z,11.20
2018-02-02T03:25:04.003Z,10.60
2018-02-02T03:26:03.994Z,11.70
2018-02-02T03:27:03.985Z,10.40
2018-02-02T03:28:03.977Z,11.60
2018-02-02T03:29:03.968Z,10.80
2018-02-02T03:30:03.958Z,10.20
2018-02-02T03:31:03.951Z,10.90
2018-02-02T03:32:03.940Z,10.40
2018-02-02T03:33:03.930Z,11.00
2018-02-02T03:34:03.925Z,10.40
2018-02-02T03:35:03.913Z,10.20
2018-02-02T03:36:03.903Z,13.80
2018-02-02T03:37:03.898Z,11.00
2018-02-02T03:38:03.886Z,11.90
2018-02-02T03:39:03.875Z,12.10
2018-02-02T03:40:03.864Z,10.30
2018-02-02T03:41:03.858Z,10.30
2018-02-02T03:42:03.849Z,10.70
2018-02-02T03:43:03.839Z,8.70
2018-02-02T03:44:03.830Z,9.20
2018-02-02T03:45:03.818Z,7.70
2018-02-02T03:46:03.811Z,8.90
2018-02-02T03:47:03.805Z,9.90
2018-02-02T03:48:03.794Z,8.50
2018-02-02T03:49:03.782Z,8.70
2018-02-02T03:50:03.772Z,8.70
2018-02-02T03:51:03.764Z,8.20
2018-02-02T03:52:03.755Z,9.50
2018-02-02T03:53:03.745Z,8.90
2018-02-02T03:54:03.736Z,8.10
2018-02-02T03:55:03.726Z,9.70
2018-02-02T03:56:03.723Z,10.00
2018-02-02T03:57:03.710Z,9.90
2018-02-02T03:58:03.699Z,10.80
2018-02-02T03:59:03.693Z,9.50
2018-02-02T04:00:03.683Z,9.40
2018-02-02T04:01:03.670Z,10.20
2018-02-02T04:02:03.660Z,9.20
2018-02-02T04:03:03.652Z,8.60
2018-02-02T04:04:03.644Z,9.10
2018-02-02T04:05:03.638Z,8.30
2018-02-02T04:06:03.626Z,9.50
2018-02-02T04:07:03.621Z,8.10
2018-02-02T04:08:03.606Z,8.50
2018-02-02T04:09:03.596Z,8.50
2018-02-02T04:10:03.586Z,8.30
2018-02-02T04:11:03.577Z,8.70
2018-02-02T04:12:03.570Z,9.40
2018-02-02T04:13:03.559Z,10.30
2018-02-02T04:14:03.547Z,9.30
2018-02-02T04:15:03.540Z,9.40
2018-02-02T04:16:03.532Z,9.40
2018-02-02T04:17:03.520Z,12.10
2018-02-02T04:18:03.513Z,9.80
2018-02-02T04:19:03.502Z,9.70
2018-02-02T04:20:03.494Z,10.90
2018-02-02T04:21:03.484Z,10.60
2018-02-02T04:22:03.471Z,8.70
2018-02-02T04:23:03.463Z,10.20
2018-02-02T04:24:03.456Z,11.10
2018-02-02T04:25:03.446Z,10.10
2018-02-02T04:26:03.437Z,9.50
2018-02-02T04:27:03.427Z,10.10
2018-02-02T04:28:03.421Z,10.50
2018-02-02T04:29:03.408Z,10.70
2018-02-02T04:30:03.401Z,10.00
2018-02-02T04:31:03.388Z,9.30
2018-02-02T04:32:03.380Z,9.50
2018-02-02T04:33:03.370Z,10.70
2018-02-02T04:34:03.360Z,10.60
2018-02-02T04:35:03.354Z,10.80
2018-02-02T04:36:03.344Z,12.40
2018-02-02T04:37:03.332Z,11.70
2018-02-02T04:38:03.327Z,12.20
2018-02-02T04:39:03.313Z,11.90
2018-02-02T04:40:03.306Z,11.90
2018-02-02T04:41:03.295Z,13.50
2018-02-02T04:42:03.286Z,13.20
2018-02-02T04:43:03.279Z,12.10
2018-02-02T04:44:03.267Z,10.90
2018-02-02T04:45:03.256Z,11.60
2018-02-02T04:46:03.247Z,12.20
2018-02-02T04:47:03.238Z,13.20
2018-02-02T04:48:03.231Z,12.70
2018-02-02T04:49:03.219Z,10.50
2018-02-02T04:50:03.211Z,11.30
2018-02-02T04:51:03.204Z,10.90
2018-02-02T04:52:03.192Z,12.10
2018-02-02T04:53:03.183Z,12.30
2018-02-02T04:54:03.172Z,10.70
2018-02-02T04:55:03.164Z,12.10
2018-02-02T04:56:03.158Z,14.60
2018-02-02T04:57:03.146Z,12.20
2018-02-02T04:58:03.134Z,12.80
2018-02-02T04:59:03.126Z,11.60
2018-02-02T05:00:03.118Z,10.80
2018-02-02T05:01:03.106Z,11.90
2018-02-02T05:02:03.098Z,12.60
2018-02-02T05:03:03.087Z,13.10
2018-02-02T05:04:03.079Z,10.90
2018-02-02T05:05:03.068Z,12.00
2018-02-02T05:06:03.058Z,13.10
2018-02-02T05:07:03.051Z,11.40
2018-02-02T05:08:03.043Z,11.10
2018-02-02T05:09:03.031Z,12.90
2018-02-02T05:10:03.026Z,13.00
2018-02-02T05:11:03.011Z,11.10
2018-02-02T05:12:03.002Z,12.00
2018-02-02T05:13:02.994Z,14.00
2018-02-02T05:14:02.988Z,12.00
2018-02-02T05:15:02.974Z,13.10
2018-02-02T05:16:02.965Z,12.50
2018-02-02T05:17:02.955Z,13.40
2018-02-02T05:18:02.944Z,13.30
2018-02-02T05:19:02.940Z,13.00
2018-02-02T05:20:02.927Z,12.90
2018-02-02T05:21:02.916Z,12.90
2018-02-02T05:22:02.907Z,13.00
2018-02-02T05:23:02.899Z,13.50
2018-02-02T05:24:02.891Z,13.70
2018-02-02T05:25:02.878Z,13.30
2018-02-02T05:26:02.869Z,12.10
2018-02-02T05:27:02.864Z,13.80
2018-02-02T05:28:02.850Z,12.70
2018-02-02T05:29:02.839Z,14.30
2018-02-02T05:30:02.827Z,13.10
2018-02-02T05:31:02.826Z,13.00
2018-02-02T05:32:02.815Z,14.30
2018-02-02T05:33:02.803Z,13.90
2018-02-02T05:34:02.795Z,14.40
2018-02-02T05:35:02.787Z,13.50
2018-02-02T05:36:02.774Z,13.70
2018-02-02T05:37:02.763Z,13.90
2018-02-02T05:38:02.752Z,14.20
2018-02-02T05:39:02.743Z,14.30
2018-02-02T05:40:02.738Z,14.70
2018-02-02T05:41:02.725Z,14.20
2018-02-02T05:42:02.716Z,15.10
2018-02-02T05:43:02.706Z,14.00
2018-02-02T05:44:02.697Z,14.30
2018-02-02T05:45:02.687Z,14.50
2018-02-02T05:46:02.676Z,15.70
2018-02-02T05:47:02.667Z,13.90
2018-02-02T05:48:02.659Z,14.30
2018-02-02T05:49:02.646Z,15.70
2018-02-02T05:50:02.640Z,14.00
2018-02-02T05:51:02.630Z,14.80
2018-02-02T05:52:02.616Z,15.80
2018-02-02T05:53:02.610Z,14.90
2018-02-02T05:54:02.599Z,14.50
2018-02-02T05:55:02.593Z,13.80
2018-02-02T05:56:02.582Z,13.70
2018-02-02T05:57:02.572Z,16.10
2018-02-02T05:58:02.562Z,13.90
2018-02-02T05:59:02.550Z,14.70
2018-02-02T06:00:02.543Z,14.30
2018-02-02T06:01:02.536Z,15.20
2018-02-02T06:02:02.522Z,14.30
2018-02-02T06:03:02.518Z,15.20
2018-02-02T06:04:02.508Z,14.30
2018-02-02T06:05:02.494Z,14.10
2018-02-02T06:06:02.484Z,14.30
2018-02-02T06:07:02.476Z,14.60
2018-02-02T06:08:02.468Z,14.30
2018-02-02T06:09:02.457Z,14.00
2018-02-02T06:10:02.449Z,15.50
2018-02-02T06:11:02.444Z,16.20
2018-02-02T06:12:02.432Z,14.00
2018-02-02T06:13:02.421Z,14.10
2018-02-02T06:14:02.411Z,14.60
2018-02-02T06:15:02.401Z,14.80
2018-02-02T06:16:02.400Z,16.10
2018-02-02T06:17:02.383Z,15.00
2018-02-02T06:18:02.376Z,14.70
2018-02-02T06:19:02.366Z,15.20
2018-02-02T06:20:02.357Z,14.70
2018-02-02T06:21:02.347Z,15.00
2018-02-02T06:22:02.337Z,14.70
2018-02-02T06:23:02.330Z,14.90
2018-02-02T06:24:02.321Z,14.50
2018-02-02T06:25:02.312Z,14.20
2018-02-02T06:26:02.302Z,15.90
2018-02-02T06:27:02.289Z,14.40
2018-02-02T06:28:02.282Z,15.00
2018-02-02T06:29:02.273Z,15.20
2018-02-02T06:30:02.263Z,14.60
2018-02-02T06:31:02.254Z,14.80
2018-02-02T06:32:02.243Z,14.60
2018-02-02T06:33:02.238Z,15.00
2018-02-02T06:34:02.223Z,14.70
2018-02-02T06:35:02.219Z,15.10
2018-02-02T06:36:02.208Z,15.60
2018-02-02T06:37:02.199Z,15.80
2018-02-02T06:38:02.189Z,14.90
2018-02-02T06:39:02.182Z,16.30
2018-02-02T06:40:02.172Z,14.90
2018-02-02T06:41:02.161Z,16.60
2018-02-02T06:42:02.158Z,14.80
2018-02-02T06:43:02.145Z,14.50
2018-02-02T06:44:02.137Z,14.90
2018-02-02T06:45:02.124Z,15.30
2018-02-02T06:46:02.131Z,15.00
2018-02-02T06:47:02.105Z,14.80
2018-02-02T06:48:02.097Z,15.20
2018-02-02T06:49:02.091Z,14.90
2018-02-02T06:50:02.078Z,16.70
2018-02-02T06:51:02.070Z,15.40
2018-02-02T06:52:02.060Z,14.50
2018-02-02T06:53:02.048Z,15.60
2018-02-02T06:54:02.041Z,16.40
2018-02-02T06:55:02.030Z,14.40
2018-02-02T06:56:02.024Z,15.50
2018-02-02T06:57:02.012Z,16.20
2018-02-02T06:58:02.004Z,14.80
2018-02-02T06:59:01.996Z,15.00
2018-02-02T07:00:02.019Z,15.10
2018-02-02T07:01:01.979Z,16.50
2018-02-02T07:02:01.974Z,15.40
2018-02-02T07:03:01.960Z,15.90
2018-02-02T07:04:01.950Z,15.30
2018-02-02T07:05:01.941Z,15.20
2018-02-02T07:06:01.936Z,15.70
2018-02-02T07:07:01.922Z,16.10
2018-02-02T07:08:01.910Z,16.10
2018-02-02T07:09:01.903Z,17.00
2018-02-02T07:10:01.895Z,15.10
2018-02-02T07:11:01.941Z,15.20
2018-02-02T07:12:01.877Z,16.50
2018-02-02T07:13:01.875Z,15.10
2018-02-02T07:14:01.864Z,15.50
2018-02-02T07:15:01.848Z,15.50
2018-02-02T07:16:01.842Z,15.20
2018-02-02T07:17:01.831Z,15.80
2018-02-02T07:18:01.858Z,14.60
2018-02-02T07:19:01.817Z,15.80
2018-02-02T07:20:01.805Z,15.60
2018-02-02T07:21:01.797Z,15.00
2018-02-02T07:22:01.787Z,16.80
2018-02-02T07:23:01.779Z,15.90
2018-02-02T07:24:01.771Z,15.60
2018-02-02T07:25:01.759Z,16.20
2018-02-02T07:26:01.749Z,15.50
2018-02-02T07:27:01.742Z,16.10
2018-02-02T07:28:01.744Z,16.10
2018-02-02T07:29:01.726Z,16.20
2018-02-02T07:30:01.716Z,16.40
2018-02-02T07:31:01.711Z,15.40
2018-02-02T07:32:01.699Z,15.60
2018-02-02T07:33:01.691Z,15.70
2018-02-02T07:34:01.679Z,15.80
2018-02-02T07:35:01.671Z,14.70
2018-02-02T07:36:01.662Z,14.70
2018-02-02T07:37:01.655Z,15.20
2018-02-02T07:38:01.646Z,16.00
2018-02-02T07:39:01.636Z,15.20
2018-02-02T07:40:01.627Z,15.60
2018-02-02T07:41:01.626Z,15.10
2018-02-02T07:42:01.609Z,15.60
2018-02-02T07:43:01.599Z,15.70
2018-02-02T07:44:01.591Z,15.20
2018-02-02T07:45:01.585Z,15.30
2018-02-02T07:46:01.576Z,15.20
2018-02-02T07:47:01.564Z,14.30
2018-02-02T07:48:01.558Z,14.80
2018-02-02T07:49:01.558Z,14.60
2018-02-02T07:50:01.536Z,15.30
2018-02-02T07:51:01.528Z,16.00
2018-02-02T07:52:01.519Z,14.10
2018-02-02T07:53:01.510Z,14.30
2018-02-02T07:54:01.502Z,14.40
2018-02-02T07:55:01.492Z,14.20
2018-02-02T07:56:01.486Z,14.30
2018-02-02T07:57:01.475Z,13.50
2018-02-02T07:58:01.465Z,13.70
2018-02-02T07:59:01.457Z,14.00
2018-02-02T08:00:01.447Z,14.80
2018-02-02T08:01:01.449Z,13.30
2018-02-02T08:02:01.429Z,13.40
2018-02-02T08:03:01.421Z,13.70
2018-02-02T08:04:01.412Z,13.20
2018-02-02T08:05:01.405Z,13.20
2018-02-02T08:06:01.392Z,12.90
2018-02-02T08:07:01.383Z,13.00
2018-02-02T08:08:01.379Z,13.80
2018-02-02T08:09:01.370Z,13.30
2018-02-02T08:10:01.357Z,14.50
2018-02-02T08:11:01.349Z,13.90
2018-02-02T08:12:01.340Z,13.30
2018-02-02T08:13:01.334Z,12.40
2018-02-02T08:14:01.327Z,13.10
2018-02-02T08:15:01.314Z,12.90
2018-02-02T08:16:01.305Z,12.10
2018-02-02T08:17:01.297Z,12.70
2018-02-02T08:18:01.289Z,12.30
2018-02-02T08:19:01.280Z,11.90
2018-02-02T08:20:01.271Z,11.80
2018-02-02T08:21:01.262Z,12.00
2018-02-02T08:22:01.251Z,11.20
2018-02-02T08:23:01.249Z,11.80
2018-02-02T08:24:01.237Z,11.50
2018-02-02T08:25:01.231Z,13.10
2018-02-02T08:26:01.218Z,11.30
2018-02-02T08:27:01.210Z,11.30
2018-02-02T08:28:01.203Z,13.60
2018-02-02T08:29:01.194Z,11.10
2018-02-02T08:30:01.184Z,11.20
2018-02-02T08:31:01.176Z,10.90
2018-02-02T08:32:01.170Z,11.40
2018-02-02T08:33:01.159Z,11.00
2018-02-02T08:34:01.151Z,10.90
2018-02-02T08:35:01.144Z,11.00
2018-02-02T08:36:01.136Z,11.40
2018-02-02T08:37:01.124Z,10.80
2018-02-02T08:38:01.118Z,11.20
2018-02-02T08:39:01.110Z,12.00
2018-02-02T08:40:01.103Z,11.40
2018-02-02T08:41:01.097Z,10.80
2018-02-02T08:42:01.084Z,10.40
2018-02-02T08:43:01.077Z,10.40
2018-02-02T08:44:01.075Z,10.90
2018-02-02T08:45:01.059Z,10.30
2018-02-02T08:46:01.053Z,10.30
2018-02-02T08:47:01.044Z,10.90
2018-02-02T08:48:01.071Z,11.30
2018-02-02T08:49:01.026Z,12.30
2018-02-02T08:50:01.017Z,12.30
2018-02-02T08:51:01.008Z,11.20
2018-02-02T08:52:01.002Z,10.10
2018-02-02T08:53:00.994Z,10.40
2018-02-02T08:54:00.986Z,12.40
2018-02-02T08:55:00.980Z,10.50
2018-02-02T08:56:00.969Z,9.90
2018-02-02T08:57:00.959Z,11.70
2018-02-02T08:58:00.954Z,10.20
2018-02-02T08:59:00.944Z,9.80
2018-02-02T09:00:00.939Z,10.20
2018-02-02T09:01:00.932Z,11.80
2018-02-02T09:02:00.922Z,9.70
2018-02-02T09:03:00.914Z,9.80
2018-02-02T09:04:00.903Z,9.50
2018-02-02T09:05:00.895Z,10.70
2018-02-02T09:06:00.883Z,9.40
2018-02-02T09:07:00.877Z,9.70
2018-02-02T09:08:00.869Z,10.40
2018-02-02T09:09:00.862Z,10.10
2018-02-02T09:10:00.852Z,10.10
2018-02-02T09:11:00.849Z,10.00
2018-02-02T09:12:00.841Z,11.30
2018-02-02T09:13:00.825Z,10.70
2018-02-02T09:14:00.820Z,9.40
2018-02-02T09:15:00.811Z,10.20
2018-02-02T09:16:00.806Z,9.20
2018-02-02T09:17:00.797Z,11.00
2018-02-02T09:18:00.790Z,9.70
2018-02-02T09:19:00.779Z,12.80
2018-02-02T09:20:00.769Z,12.40
2018-02-02T09:21:00.764Z,10.40
2018-02-02T09:22:00.757Z,9.60
2018-02-02T09:23:00.745Z,10.00
2018-02-02T09:24:00.739Z,10.20
2018-02-02T09:25:00.733Z,10.50
2018-02-02T09:26:00.723Z,10.20
2018-02-02T09:27:00.713Z,9.50
2018-02-02T09:28:00.705Z,10.20
2018-02-02T09:29:00.697Z,10.00
2018-02-02T09:30:00.687Z,10.40
2018-02-02T09:31:00.681Z,9.30
2018-02-02T09:32:00.679Z,10.40
2018-02-02T09:33:00.666Z,9.80
2018-02-02T09:34:00.658Z,8.80
2018-02-02T09:35:00.650Z,9.40
2018-02-02T09:36:00.648Z,9.30
2018-02-02T09:37:00.632Z,8.80
2018-02-02T09:38:00.625Z,10.70
2018-02-02T09:39:00.618Z,9.30
2018-02-02T09:40:00.609Z,9.10
2018-02-02T09:41:00.599Z,9.50
2018-02-02T09:42:00.631Z,9.10
2018-02-02T09:43:00.587Z,8.50
2018-02-02T09:44:00.578Z,9.80
2018-02-02T09:45:00.569Z,8.60
2018-02-02T09:46:00.564Z,8.90
2018-02-02T09:47:00.553Z,9.10
2018-02-02T09:48:00.546Z,9.10
2018-02-02T09:49:00.551Z,8.90
2018-02-02T09:50:00.529Z,8.30
2018-02-02T09:51:00.521Z,8.60
2018-02-02T09:52:00.515Z,8.90
2018-02-02T09:53:00.505Z,9.30
2018-02-02T09:54:00.496Z,9.40
2018-02-02T09:55:00.490Z,7.90
2018-02-02T09:56:00.490Z,7.60
2018-02-02T09:57:00.475Z,8.80
2018-02-02T09:58:00.465Z,8.20
2018-02-02T09:59:00.457Z,7.80
2018-02-02T10:00:00.450Z,9.40
2018-02-02T10:01:00.464Z,7.90
2018-02-02T10:02:00.433Z,9.20
2018-02-02T10:03:00.425Z,7.90
2018-02-02T10:04:00.424Z,7.90
2018-02-02T10:05:00.410Z,9.10
2018-02-02T10:06:00.402Z,7.10
2018-02-02T10:07:00.395Z,8.90
2018-02-02T10:08:00.385Z,8.60
2018-02-02T10:09:00.380Z,7.80
2018-02-02T10:10:00.371Z,8.90
2018-02-02T10:11:00.366Z,7.60
2018-02-02T10:12:00.357Z,8.20
2018-02-02T10:13:00.346Z,8.80
2018-02-02T10:14:00.339Z,7.80
2018-02-02T10:15:00.333Z,8.00
2018-02-02T10:16:00.329Z,9.30
2018-02-02T10:17:00.316Z,7.40
2018-02-02T10:18:00.308Z,8.60
2018-02-02T10:19:00.300Z,7.50
2018-02-02T10:20:00.294Z,8.00
2018-02-02T10:21:00.285Z,8.60
2018-02-02T10:22:00.279Z,7.80
2018-02-02T10:23:00.272Z,7.90
2018-02-02T10:24:00.263Z,8.10
2018-02-02T10:25:00.253Z,7.80
2018-02-02T10:26:00.248Z,7.20
2018-02-02T10:27:00.238Z,8.60
2018-02-02T10:28:00.231Z,9.00
2018-02-02T10:29:00.224Z,8.50
2018-02-02T10:30:00.216Z,8.50
2018-02-02T10:31:00.208Z,7.50
2018-02-02T10:32:00.203Z,8.00
2018-02-02T10:33:00.197Z,8.70
2018-02-02T10:34:00.186Z,7.00
2018-02-02T10:35:00.179Z,7.60
2018-02-02T10:36:00.170Z,7.20
2018-02-02T10:37:00.161Z,7.50
2018-02-02T10:38:00.160Z,6.70
2018-02-02T10:39:00.149Z,7.30
2018-02-02T10:40:00.140Z,6.40
2018-02-02T10:41:00.133Z,6.40
2018-02-02T10:42:00.125Z,7.20
2018-02-02T10:43:00.117Z,7.90
2018-02-02T10:44:00.112Z,7.00
2018-02-02T10:45:00.103Z,6.20
2018-02-02T10:46:00.096Z,7.30
2018-02-02T10:47:00.128Z,6.10
2018-02-02T10:48:00.077Z,7.10
2018-02-02T10:49:00.074Z,5.50
2018-02-02T10:50:00.082Z,6.30
2018-02-02T10:51:00.059Z,7.90
2018-02-02T10:52:00.051Z,8.00
2018-02-02T10:53:00.044Z,6.20
2018-02-02T10:54:00.035Z,5.70
2018-02-02T10:55:00.039Z,5.80
2018-02-02T10:56:00.029Z,6.50
2018-02-02T10:57:00.016Z,7.00
2018-02-02T10:58:00.010Z,5.80
2018-02-02T10:58:59.998Z,7.60
2018-02-02T10:59:59.991Z,8.20
2018-02-02T11:00:59.983Z,7.00
2018-02-02T11:01:59.977Z,6.10
2018-02-02T11:02:59.970Z,6.00
2018-02-02T11:03:59.963Z,5.80
2018-02-02T11:04:59.955Z,5.90
2018-02-02T11:05:59.950Z,5.00
2018-02-02T11:06:59.942Z,5.80
2018-02-02T11:07:59.936Z,6.20
2018-02-02T11:08:59.927Z,5.80
2018-02-02T11:09:59.918Z,7.50
2018-02-02T11:10:59.913Z,4.80
2018-02-02T11:11:59.907Z,6.00
2018-02-02T11:12:59.898Z,6.80
2018-02-02T11:13:59.895Z,6.20
2018-02-02T11:14:59.886Z,6.00
2018-02-02T11:15:59.902Z,5.90
2018-02-02T11:16:59.870Z,6.40
2018-02-02T11:17:59.865Z,5.80
2018-02-02T11:18:59.858Z,4.90
2018-02-02T11:19:59.851Z,5.00
2018-02-02T11:20:59.839Z,6.30
2018-02-02T11:21:59.838Z,7.10
2018-02-02T11:22:59.831Z,5.60
2018-02-02T11:23:59.823Z,5.20
2018-02-02T11:24:59.816Z,5.40
2018-02-02T11:25:59.810Z,5.40
2018-02-02T11:26:59.802Z,6.40
2018-02-02T11:27:59.796Z,6.20
2018-02-02T11:28:59.788Z,6.30
2018-02-02T11:29:59.782Z,5.90
2018-02-02T11:30:59.806Z,6.10
2018-02-02T11:31:59.770Z,5.60
2018-02-02T11:32:59.763Z,5.10
2018-02-02T11:33:59.757Z,5.40
2018-02-02T11:34:59.750Z,5.20
2018-02-02T11:35:59.744Z,4.90
2018-02-02T11:36:59.735Z,6.50
2018-02-02T11:37:59.732Z,7.80
2018-02-02T11:38:59.726Z,6.70
2018-02-02T11:39:59.719Z,5.90
2018-02-02T11:40:59.711Z,5.90
2018-02-02T11:41:59.705Z,7.00
2018-02-02T11:42:59.699Z,6.10
2018-02-02T11:43:59.698Z,5.90
2018-02-02T11:44:59.690Z,5.20
2018-02-02T11:45:59.679Z,5.90
2018-02-02T11:46:59.674Z,6.00
2018-02-02T11:47:59.666Z,5.70
2018-02-02T11:48:59.662Z,5.90
2018-02-02T11:49:59.653Z,7.00
2018-02-02T11:50:59.649Z,5.80
2018-02-02T11:51:59.640Z,5.00
2018-02-02T11:52:59.635Z,5.70
2018-02-02T11:53:59.628Z,5.50
2018-02-02T11:54:59.621Z,6.00
2018-02-02T11:55:59.613Z,6.80
2018-02-02T11:56:59.610Z,4.70
2018-02-02T11:57:59.606Z,5.50
2018-02-02T11:58:59.600Z,5.80
2018-02-02T11:59:59.595Z,6.30
2018-02-02T12:00:59.585Z,5.70
2018-02-02T12:01:59.578Z,5.70
2018-02-02T12:02:59.575Z,4.80
2018-02-02T12:03:59.564Z,5.70
2018-02-02T12:04:59.560Z,5.20
2018-02-02T12:05:59.555Z,6.40
2018-02-02T12:06:59.548Z,4.70
2018-02-02T12:07:59.542Z,4.50
2018-02-02T12:08:59.535Z,5.80
2018-02-02T12:09:59.532Z,4.70
2018-02-02T12:10:59.524Z,5.60
2018-02-02T12:11:59.514Z,6.40
2018-02-02T12:12:59.511Z,4.60
2018-02-02T12:13:59.504Z,5.80
2018-02-02T12:14:59.499Z,5.30
2018-02-02T12:15:59.490Z,5.50
2018-02-02T12:16:59.486Z,4.90
2018-02-02T12:17:59.481Z,6.10
2018-02-02T12:18:59.475Z,5.10
2018-02-02T12:19:59.469Z,5.30
2018-02-02T12:20:59.465Z,4.80
2018-02-02T12:21:59.452Z,6.20
2018-02-02T12:22:59.451Z,5.70
2018-02-02T12:23:59.441Z,5.50
2018-02-02T12:24:59.447Z,5.80
2018-02-02T12:25:59.434Z,6.30
2018-02-02T12:26:59.427Z,4.90
2018-02-02T12:27:59.421Z,5.80
2018-02-02T12:28:59.418Z,5.80
2018-02-02T12:29:59.409Z,6.10
2018-02-02T12:30:59.404Z,5.30
2018-02-02T12:31:59.396Z,5.50
2018-02-02T12:32:59.390Z,5.70
2018-02-02T12:33:59.388Z,4.30
2018-02-02T12:34:59.430Z,4.90
2018-02-02T12:35:59.377Z,4.80
2018-02-02T12:36:59.368Z,4.80
2018-02-02T12:37:59.362Z,4.50
2018-02-02T12:38:59.355Z,4.50
2018-02-02T12:39:59.350Z,5.90
2018-02-02T12:40:59.342Z,4.20
2018-02-02T12:41:59.338Z,5.40
2018-02-02T12:42:59.328Z,4.60
2018-02-02T12:43:59.327Z,4.30
2018-02-02T12:44:59.320Z,4.40
2018-02-02T12:45:59.325Z,4.90
2018-02-02T12:46:59.309Z,5.20
2018-02-02T12:47:59.304Z,5.30
2018-02-02T12:48:59.297Z,5.00
2018-02-02T12:49:59.290Z,5.00
2018-02-02T12:50:59.322Z,4.00
2018-02-02T12:51:59.278Z,4.00
2018-02-02T12:52:59.271Z,4.00
2018-02-02T12:53:59.266Z,5.20
2018-02-02T12:54:59.261Z,4.80
2018-02-02T12:55:59.257Z,3.90
2018-02-02T12:56:59.248Z,5.00
2018-02-02T12:57:59.242Z,4.90
2018-02-02T12:58:59.238Z,5.40
2018-02-02T12:59:59.234Z,4.40
2018-02-02T13:00:59.225Z,4.00
2018-02-02T13:01:59.268Z,4.80
2018-02-02T13:02:59.213Z,7.00
2018-02-02T13:03:59.206Z,5.10
2018-02-02T13:04:59.201Z,5.10
2018-02-02T13:05:59.197Z,5.30
2018-02-02T13:06:59.190Z,5.70